sensor_id;sensor_type;location;lat;lon;timestamp;P1;durP1;ratioP1;P2;durP2;ratioP2
52456;SDS011;38369;52.840;7.082;2023-10-09T00:01:07;8.70;;;3.30;;
52456;SDS011;38369;52.840;7.082;2023-10-09T00:03:40;5.45;;;2.50;;
52456;SDS011;38369;52.840;7.082;2023-10-09T00:06:08;8.77;;;3.00;;
52456;SDS011;38369;52.840;7.082;2023-10-09T00:08:37;6.43;;;3.08;;
52456;SDS011;38369;52.840;7.082;2023-10-09T00:11:04;5.97;;;2.88;;
52456;SDS011;38369;52.840;7.082;2023-10-09T00:13:44;7.88;;;3.90;;
52456;SDS011;38369;52.840;7.082;2023-10-09T00:16:39;7.80;;;3.28;;
52456;SDS011;38369;52.840;7.082;2023-10-09T00:19:12;8.38;;;2.72;;
52456;SDS011;38369;52.840;7.082;2023-10-09T00:21:44;7.28;;;2.78;;
52456;SDS011;38369;52.840;7.082;2023-10-09T00:24:11;7.25;;;3.58;;
52456;SDS011;38369;52.840;7.082;2023-10-09T00:26:48;14.68;;;4.03;;
52456;SDS011;38369;52.840;7.082;2023-10-09T00:29:14;6.97;;;3.03;;
52456;SDS011;38369;52.840;7.082;2023-10-09T00:31:53;10.15;;;3.60;;
52456;SDS011;38369;52.840;7.082;2023-10-09T00:34:31;8.93;;;3.47;;
52456;SDS011;38369;52.840;7.082;2023-10-09T00:37:05;7.95;;;2.85;;
52456;SDS011;38369;52.840;7.082;2023-10-09T00:39:36;8.38;;;3.45;;
52456;SDS011;38369;52.840;7.082;2023-10-09T00:42:05;9.52;;;3.35;;
52456;SDS011;38369;52.840;7.082;2023-10-09T00:44:32;8.32;;;3.30;;
52456;SDS011;38369;52.840;7.082;2023-10-09T00:47:10;8.68;;;3.05;;
52456;SDS011;38369;52.840;7.082;2023-10-09T00:49:49;8.35;;;3.67;;
52456;SDS011;38369;52.840;7.082;2023-10-09T00:52:16;6.13;;;2.95;;
52456;SDS011;38369;52.840;7.082;2023-10-09T00:54:56;7.80;;;3.50;;
52456;SDS011;38369;52.840;7.082;2023-10-09T00:57:27;9.88;;;3.53;;
52456;SDS011;38369;52.840;7.082;2023-10-09T00:59:54;6.60;;;4.03;;
52456;SDS011;38369;52.840;7.082;2023-10-09T01:02:27;8.85;;;4.10;;
52456;SDS011;38369;52.840;7.082;2023-10-09T01:05:07;9.98;;;4.88;;
52456;SDS011;38369;52.840;7.082;2023-10-09T01:07:46;8.52;;;4.13;;
52456;SDS011;38369;52.840;7.082;2023-10-09T01:10:13;10.43;;;4.32;;
52456;SDS011;38369;52.840;7.082;2023-10-09T01:12:42;12.00;;;4.88;;
52456;SDS011;38369;52.840;7.082;2023-10-09T01:15:10;10.85;;;4.93;;
52456;SDS011;38369;52.840;7.082;2023-10-09T01:18:01;10.20;;;4.32;;
52456;SDS011;38369;52.840;7.082;2023-10-09T01:20:27;10.68;;;4.85;;
52456;SDS011;38369;52.840;7.082;2023-10-09T01:23:01;11.82;;;5.55;;
52456;SDS011;38369;52.840;7.082;2023-10-09T01:25:27;11.20;;;4.85;;
52456;SDS011;38369;52.840;7.082;2023-10-09T01:28:07;9.93;;;5.57;;
52456;SDS011;38369;52.840;7.082;2023-10-09T01:30:33;17.67;;;7.03;;
52456;SDS011;38369;52.840;7.082;2023-10-09T01:32:59;11.15;;;6.68;;
52456;SDS011;38369;52.840;7.082;2023-10-09T01:35:45;15.43;;;7.60;;
52456;SDS011;38369;52.840;7.082;2023-10-09T01:38:14;13.40;;;6.93;;
52456;SDS011;38369;52.840;7.082;2023-10-09T01:40:41;18.02;;;7.65;;
52456;SDS011;38369;52.840;7.082;2023-10-09T01:43:08;19.35;;;8.30;;
52456;SDS011;38369;52.840;7.082;2023-10-09T01:45:44;17.45;;;8.65;;
52456;SDS011;38369;52.840;7.082;2023-10-09T01:48:13;18.55;;;9.38;;
52456;SDS011;38369;52.840;7.082;2023-10-09T01:50:48;15.48;;;9.13;;
52456;SDS011;38369;52.840;7.082;2023-10-09T01:53:14;19.10;;;10.15;;
52456;SDS011;38369;52.840;7.082;2023-10-09T01:55:43;19.85;;;10.65;;
52456;SDS011;38369;52.840;7.082;2023-10-09T01:58:11;19.70;;;11.25;;
52456;SDS011;38369;52.840;7.082;2023-10-09T02:00:46;24.88;;;13.90;;
52456;SDS011;38369;52.840;7.082;2023-10-09T02:03:19;27.73;;;15.05;;
52456;SDS011;38369;52.840;7.082;2023-10-09T02:05:49;35.00;;;15.82;;
52456;SDS011;38369;52.840;7.082;2023-10-09T02:08:16;30.40;;;16.38;;
52456;SDS011;38369;52.840;7.082;2023-10-09T02:10:47;28.77;;;16.38;;
52456;SDS011;38369;52.840;7.082;2023-10-09T02:13:13;28.77;;;16.77;;
52456;SDS011;38369;52.840;7.082;2023-10-09T02:15:42;37.25;;;18.60;;
52456;SDS011;38369;52.840;7.082;2023-10-09T02:18:09;32.08;;;17.40;;
52456;SDS011;38369;52.840;7.082;2023-10-09T02:23:28;31.27;;;19.20;;
52456;SDS011;38369;52.840;7.082;2023-10-09T02:26:06;35.67;;;18.95;;
52456;SDS011;38369;52.840;7.082;2023-10-09T02:28:33;33.00;;;17.63;;
52456;SDS011;38369;52.840;7.082;2023-10-09T02:31:00;32.75;;;19.13;;
52456;SDS011;38369;52.840;7.082;2023-10-09T02:33:44;35.35;;;18.63;;
52456;SDS011;38369;52.840;7.082;2023-10-09T02:36:10;39.38;;;17.42;;
52456;SDS011;38369;52.840;7.082;2023-10-09T02:38:38;32.97;;;17.98;;
52456;SDS011;38369;52.840;7.082;2023-10-09T02:41:07;35.00;;;17.52;;
52456;SDS011;38369;52.840;7.082;2023-10-09T02:43:39;37.80;;;18.90;;
52456;SDS011;38369;52.840;7.082;2023-10-09T02:46:15;28.90;;;17.20;;
52456;SDS011;38369;52.840;7.082;2023-10-09T02:48:54;35.60;;;18.02;;
52456;SDS011;38369;52.840;7.082;2023-10-09T02:51:21;35.50;;;18.60;;
52456;SDS011;38369;52.840;7.082;2023-10-09T02:53:54;35.75;;;19.40;;
52456;SDS011;38369;52.840;7.082;2023-10-09T02:56:21;30.40;;;17.25;;
52456;SDS011;38369;52.840;7.082;2023-10-09T02:59:08;29.55;;;17.45;;
52456;SDS011;38369;52.840;7.082;2023-10-09T03:01:34;37.05;;;19.52;;
52456;SDS011;38369;52.840;7.082;2023-10-09T03:04:03;42.22;;;19.33;;
52456;SDS011;38369;52.840;7.082;2023-10-09T03:06:30;46.80;;;21.40;;
52456;SDS011;38369;52.840;7.082;2023-10-09T03:08:59;36.70;;;19.73;;
52456;SDS011;38369;52.840;7.082;2023-10-09T03:11:25;43.65;;;22.02;;
52456;SDS011;38369;52.840;7.082;2023-10-09T03:13:57;44.08;;;22.02;;
52456;SDS011;38369;52.840;7.082;2023-10-09T03:16:23;45.25;;;23.17;;
52456;SDS011;38369;52.840;7.082;2023-10-09T03:18:51;39.33;;;22.55;;
52456;SDS011;38369;52.840;7.082;2023-10-09T03:21:21;40.50;;;23.10;;
52456;SDS011;38369;52.840;7.082;2023-10-09T03:23:47;45.20;;;24.05;;
52456;SDS011;38369;52.840;7.082;2023-10-09T03:26:17;46.13;;;23.08;;
52456;SDS011;38369;52.840;7.082;2023-10-09T03:28:44;39.75;;;22.55;;
52456;SDS011;38369;52.840;7.082;2023-10-09T03:31:11;46.33;;;23.85;;
52456;SDS011;38369;52.840;7.082;2023-10-09T03:33:37;49.10;;;24.08;;
52456;SDS011;38369;52.840;7.082;2023-10-09T03:36:04;45.50;;;24.33;;
52456;SDS011;38369;52.840;7.082;2023-10-09T03:38:36;48.58;;;26.25;;
52456;SDS011;38369;52.840;7.082;2023-10-09T03:41:06;48.13;;;24.42;;
52456;SDS011;38369;52.840;7.082;2023-10-09T03:43:37;51.83;;;26.58;;
52456;SDS011;38369;52.840;7.082;2023-10-09T03:46:10;50.70;;;25.90;;
52456;SDS011;38369;52.840;7.082;2023-10-09T03:48:49;53.13;;;27.23;;
52456;SDS011;38369;52.840;7.082;2023-10-09T03:51:22;54.58;;;28.75;;
52456;SDS011;38369;52.840;7.082;2023-10-09T03:53:48;55.42;;;27.88;;
52456;SDS011;38369;52.840;7.082;2023-10-09T03:56:16;61.58;;;28.80;;
52456;SDS011;38369;52.840;7.082;2023-10-09T03:58:46;57.15;;;30.20;;
52456;SDS011;38369;52.840;7.082;2023-10-09T04:01:14;53.97;;;29.08;;
52456;SDS011;38369;52.840;7.082;2023-10-09T04:03:57;51.08;;;28.75;;
52456;SDS011;38369;52.840;7.082;2023-10-09T04:06:27;56.00;;;29.67;;
52456;SDS011;38369;52.840;7.082;2023-10-09T04:09:01;51.72;;;27.95;;
52456;SDS011;38369;52.840;7.082;2023-10-09T04:11:51;54.42;;;28.77;;
52456;SDS011;38369;52.840;7.082;2023-10-09T04:14:36;55.13;;;29.58;;
52456;SDS011;38369;52.840;7.082;2023-10-09T04:17:12;57.15;;;30.85;;
52456;SDS011;38369;52.840;7.082;2023-10-09T04:19:57;53.60;;;29.15;;
52456;SDS011;38369;52.840;7.082;2023-10-09T04:22:41;60.20;;;30.65;;
52456;SDS011;38369;52.840;7.082;2023-10-09T04:25:24;58.53;;;30.25;;
52456;SDS011;38369;52.840;7.082;2023-10-09T04:27:51;60.97;;;30.45;;
52456;SDS011;38369;52.840;7.082;2023-10-09T04:30:18;52.92;;;29.45;;
52456;SDS011;38369;52.840;7.082;2023-10-09T04:32:44;60.78;;;31.65;;
52456;SDS011;38369;52.840;7.082;2023-10-09T04:35:11;63.10;;;32.08;;
52456;SDS011;38369;52.840;7.082;2023-10-09T04:37:51;58.92;;;32.55;;
52456;SDS011;38369;52.840;7.082;2023-10-09T04:40:25;63.05;;;34.05;;
52456;SDS011;38369;52.840;7.082;2023-10-09T04:43:13;68.25;;;35.40;;
52456;SDS011;38369;52.840;7.082;2023-10-09T04:45:48;73.53;;;34.30;;
52456;SDS011;38369;52.840;7.082;2023-10-09T04:48:32;65.35;;;35.10;;
52456;SDS011;38369;52.840;7.082;2023-10-09T04:51:06;66.40;;;37.47;;
52456;SDS011;38369;52.840;7.082;2023-10-09T04:54:00;72.07;;;36.10;;
52456;SDS011;38369;52.840;7.082;2023-10-09T04:56:39;74.03;;;36.88;;
52456;SDS011;38369;52.840;7.082;2023-10-09T04:59:19;67.70;;;36.42;;
52456;SDS011;38369;52.840;7.082;2023-10-09T05:01:53;76.60;;;36.67;;
52456;SDS011;38369;52.840;7.082;2023-10-09T05:04:29;75.80;;;35.92;;
52456;SDS011;38369;52.840;7.082;2023-10-09T05:07:06;76.50;;;35.63;;
52456;SDS011;38369;52.840;7.082;2023-10-09T05:10:10;63.55;;;32.75;;
52456;SDS011;38369;52.840;7.082;2023-10-09T05:12:44;74.82;;;35.05;;
52456;SDS011;38369;52.840;7.082;2023-10-09T05:15:22;66.43;;;35.72;;
52456;SDS011;38369;52.840;7.082;2023-10-09T05:17:53;65.78;;;35.38;;
52456;SDS011;38369;52.840;7.082;2023-10-09T05:20:24;73.60;;;34.35;;
52456;SDS011;38369;52.840;7.082;2023-10-09T05:22:53;67.88;;;35.33;;
52456;SDS011;38369;52.840;7.082;2023-10-09T05:25:26;80.88;;;37.47;;
52456;SDS011;38369;52.840;7.082;2023-10-09T05:28:11;75.25;;;35.20;;
52456;SDS011;38369;52.840;7.082;2023-10-09T05:30:55;74.43;;;37.15;;
52456;SDS011;38369;52.840;7.082;2023-10-09T05:33:32;70.60;;;36.60;;
52456;SDS011;38369;52.840;7.082;2023-10-09T05:36:00;85.07;;;37.97;;
52456;SDS011;38369;52.840;7.082;2023-10-09T05:38:51;75.20;;;38.35;;
52456;SDS011;38369;52.840;7.082;2023-10-09T05:41:27;80.95;;;37.40;;
52456;SDS011;38369;52.840;7.082;2023-10-09T05:43:56;72.35;;;37.50;;
52456;SDS011;38369;52.840;7.082;2023-10-09T05:46:41;73.75;;;37.83;;
52456;SDS011;38369;52.840;7.082;2023-10-09T05:49:27;74.32;;;36.55;;
52456;SDS011;38369;52.840;7.082;2023-10-09T05:52:11;83.80;;;37.88;;
52456;SDS011;38369;52.840;7.082;2023-10-09T05:54:57;74.10;;;37.55;;
52456;SDS011;38369;52.840;7.082;2023-10-09T05:57:42;65.60;;;36.13;;
52456;SDS011;38369;52.840;7.082;2023-10-09T06:00:26;73.70;;;37.63;;
52456;SDS011;38369;52.840;7.082;2023-10-09T06:03:11;78.32;;;36.75;;
52456;SDS011;38369;52.840;7.082;2023-10-09T06:08:24;69.72;;;37.08;;
52456;SDS011;38369;52.840;7.082;2023-10-09T06:11:13;77.35;;;36.17;;
52456;SDS011;38369;52.840;7.082;2023-10-09T06:14:00;72.93;;;36.30;;
52456;SDS011;38369;52.840;7.082;2023-10-09T06:16:37;73.65;;;35.03;;
52456;SDS011;38369;52.840;7.082;2023-10-09T06:19:04;70.55;;;35.80;;
52456;SDS011;38369;52.840;7.082;2023-10-09T06:21:34;73.53;;;35.43;;
52456;SDS011;38369;52.840;7.082;2023-10-09T06:24:22;74.75;;;35.08;;
52456;SDS011;38369;52.840;7.082;2023-10-09T06:26:49;68.43;;;34.35;;
52456;SDS011;38369;52.840;7.082;2023-10-09T06:29:26;73.72;;;34.28;;
52456;SDS011;38369;52.840;7.082;2023-10-09T06:32:16;69.00;;;35.95;;
52456;SDS011;38369;52.840;7.082;2023-10-09T06:35:00;70.50;;;35.42;;
52456;SDS011;38369;52.840;7.082;2023-10-09T06:37:47;59.55;;;31.35;;
52456;SDS011;38369;52.840;7.082;2023-10-09T06:40:26;54.47;;;30.45;;
52456;SDS011;38369;52.840;7.082;2023-10-09T06:43:02;60.17;;;31.52;;
52456;SDS011;38369;52.840;7.082;2023-10-09T06:45:40;61.28;;;29.77;;
52456;SDS011;38369;52.840;7.082;2023-10-09T06:48:10;60.80;;;27.93;;
52456;SDS011;38369;52.840;7.082;2023-10-09T06:50:54;56.72;;;27.65;;
52456;SDS011;38369;52.840;7.082;2023-10-09T06:53:29;52.97;;;28.52;;
52456;SDS011;38369;52.840;7.082;2023-10-09T06:56:14;50.22;;;28.73;;
52456;SDS011;38369;52.840;7.082;2023-10-09T06:58:49;54.38;;;26.85;;
52456;SDS011;38369;52.840;7.082;2023-10-09T07:01:20;48.75;;;25.10;;
52456;SDS011;38369;52.840;7.082;2023-10-09T07:04:04;50.13;;;25.92;;
52456;SDS011;38369;52.840;7.082;2023-10-09T07:06:53;45.78;;;25.42;;
52456;SDS011;38369;52.840;7.082;2023-10-09T07:09:22;49.72;;;25.23;;
52456;SDS011;38369;52.840;7.082;2023-10-09T07:11:51;45.42;;;23.80;;
52456;SDS011;38369;52.840;7.082;2023-10-09T07:14:28;46.70;;;24.05;;
52456;SDS011;38369;52.840;7.082;2023-10-09T07:19:26;45.25;;;23.02;;
52456;SDS011;38369;52.840;7.082;2023-10-09T07:21:59;40.70;;;22.17;;
52456;SDS011;38369;52.840;7.082;2023-10-09T07:24:31;40.22;;;22.13;;
52456;SDS011;38369;52.840;7.082;2023-10-09T07:29:37;42.53;;;21.52;;
52456;SDS011;38369;52.840;7.082;2023-10-09T07:32:15;37.58;;;19.88;;
52456;SDS011;38369;52.840;7.082;2023-10-09T07:34:45;35.58;;;20.20;;
52456;SDS011;38369;52.840;7.082;2023-10-09T07:37:21;34.88;;;19.13;;
52456;SDS011;38369;52.840;7.082;2023-10-09T07:39:51;32.50;;;17.98;;
52456;SDS011;38369;52.840;7.082;2023-10-09T07:42:23;35.22;;;18.80;;
52456;SDS011;38369;52.840;7.082;2023-10-09T07:45:02;34.47;;;17.88;;
52456;SDS011;38369;52.840;7.082;2023-10-09T07:47:57;42.58;;;19.88;;
52456;SDS011;38369;52.840;7.082;2023-10-09T07:50:36;36.90;;;17.55;;
52456;SDS011;38369;52.840;7.082;2023-10-09T07:53:15;33.05;;;18.15;;
52456;SDS011;38369;52.840;7.082;2023-10-09T07:58:20;32.80;;;17.35;;
52456;SDS011;38369;52.840;7.082;2023-10-09T08:00:56;29.92;;;16.95;;
52456;SDS011;38369;52.840;7.082;2023-10-09T08:03:36;31.80;;;16.33;;
52456;SDS011;38369;52.840;7.082;2023-10-09T08:08:52;29.30;;;15.07;;
52456;SDS011;38369;52.840;7.082;2023-10-09T08:11:42;26.85;;;16.02;;
52456;SDS011;38369;52.840;7.082;2023-10-09T08:14:11;30.40;;;15.35;;
52456;SDS011;38369;52.840;7.082;2023-10-09T08:16:56;28.08;;;15.95;;
52456;SDS011;38369;52.840;7.082;2023-10-09T08:19:48;34.35;;;15.88;;
52456;SDS011;38369;52.840;7.082;2023-10-09T08:22:28;30.13;;;16.88;;
52456;SDS011;38369;52.840;7.082;2023-10-09T08:24:54;29.25;;;16.10;;
52456;SDS011;38369;52.840;7.082;2023-10-09T08:27:25;25.40;;;15.38;;
52456;SDS011;38369;52.840;7.082;2023-10-09T08:30:12;37.75;;;16.48;;
52456;SDS011;38369;52.840;7.082;2023-10-09T08:32:48;36.72;;;18.58;;
52456;SDS011;38369;52.840;7.082;2023-10-09T08:35:33;29.88;;;15.55;;
52456;SDS011;38369;52.840;7.082;2023-10-09T08:38:11;31.98;;;16.63;;
52456;SDS011;38369;52.840;7.082;2023-10-09T08:40:40;36.85;;;17.17;;
52456;SDS011;38369;52.840;7.082;2023-10-09T08:43:15;35.03;;;16.02;;
52456;SDS011;38369;52.840;7.082;2023-10-09T08:45:48;27.55;;;15.40;;
52456;SDS011;38369;52.840;7.082;2023-10-09T08:48:17;29.92;;;15.98;;
52456;SDS011;38369;52.840;7.082;2023-10-09T08:50:44;25.88;;;15.05;;
52456;SDS011;38369;52.840;7.082;2023-10-09T08:53:11;33.97;;;16.05;;
52456;SDS011;38369;52.840;7.082;2023-10-09T08:55:37;31.75;;;14.93;;
52456;SDS011;38369;52.840;7.082;2023-10-09T08:58:04;32.40;;;15.57;;
52456;SDS011;38369;52.840;7.082;2023-10-09T09:00:50;29.67;;;15.23;;
52456;SDS011;38369;52.840;7.082;2023-10-09T09:03:17;31.85;;;14.90;;
52456;SDS011;38369;52.840;7.082;2023-10-09T09:05:47;27.77;;;13.82;;
52456;SDS011;38369;52.840;7.082;2023-10-09T09:08:26;26.80;;;13.95;;
52456;SDS011;38369;52.840;7.082;2023-10-09T09:13:36;34.03;;;14.25;;
52456;SDS011;38369;52.840;7.082;2023-10-09T09:16:03;24.45;;;14.32;;
52456;SDS011;38369;52.840;7.082;2023-10-09T09:18:29;42.95;;;14.60;;
52456;SDS011;38369;52.840;7.082;2023-10-09T09:21:02;33.17;;;13.57;;
52456;SDS011;38369;52.840;7.082;2023-10-09T09:23:57;34.88;;;15.50;;
52456;SDS011;38369;52.840;7.082;2023-10-09T09:29:10;36.40;;;14.43;;
52456;SDS011;38369;52.840;7.082;2023-10-09T09:31:36;35.00;;;16.77;;
52456;SDS011;38369;52.840;7.082;2023-10-09T09:34:06;27.35;;;14.48;;
52456;SDS011;38369;52.840;7.082;2023-10-09T09:36:56;29.27;;;14.05;;
52456;SDS011;38369;52.840;7.082;2023-10-09T09:39:23;30.52;;;14.00;;
52456;SDS011;38369;52.840;7.082;2023-10-09T09:41:58;28.85;;;14.38;;
52456;SDS011;38369;52.840;7.082;2023-10-09T09:44:33;22.83;;;12.10;;
52456;SDS011;38369;52.840;7.082;2023-10-09T09:47:08;25.20;;;13.90;;
52456;SDS011;38369;52.840;7.082;2023-10-09T09:49:37;25.80;;;12.00;;
52456;SDS011;38369;52.840;7.082;2023-10-09T09:52:04;22.63;;;14.15;;
52456;SDS011;38369;52.840;7.082;2023-10-09T09:54:36;29.60;;;14.05;;
52456;SDS011;38369;52.840;7.082;2023-10-09T09:57:03;26.67;;;13.77;;
52456;SDS011;38369;52.840;7.082;2023-10-09T09:59:39;28.63;;;13.93;;
52456;SDS011;38369;52.840;7.082;2023-10-09T10:04:32;26.00;;;14.30;;
52456;SDS011;38369;52.840;7.082;2023-10-09T10:07:00;31.52;;;14.82;;
52456;SDS011;38369;52.840;7.082;2023-10-09T10:09:37;21.55;;;13.55;;
52456;SDS011;38369;52.840;7.082;2023-10-09T10:18:22;26.23;;;14.63;;
52456;SDS011;38369;52.840;7.082;2023-10-09T10:20:29;31.65;;;16.27;;
52456;SDS011;38369;52.840;7.082;2023-10-09T10:25:47;34.38;;;16.55;;
52456;SDS011;38369;52.840;7.082;2023-10-09T10:30:53;25.38;;;15.10;;
52456;SDS011;38369;52.840;7.082;2023-10-09T10:33:19;26.90;;;14.90;;
52456;SDS011;38369;52.840;7.082;2023-10-09T10:35:47;24.15;;;13.52;;
52456;SDS011;38369;52.840;7.082;2023-10-09T10:38:26;24.63;;;12.65;;
52456;SDS011;38369;52.840;7.082;2023-10-09T10:43:42;18.98;;;11.40;;
52456;SDS011;38369;52.840;7.082;2023-10-09T10:46:14;22.05;;;12.10;;
52456;SDS011;38369;52.840;7.082;2023-10-09T10:48:55;22.00;;;12.23;;
52456;SDS011;38369;52.840;7.082;2023-10-09T10:51:25;16.92;;;12.30;;
52456;SDS011;38369;52.840;7.082;2023-10-09T10:53:59;22.45;;;11.60;;
52456;SDS011;38369;52.840;7.082;2023-10-09T10:56:45;22.33;;;12.30;;
52456;SDS011;38369;52.840;7.082;2023-10-09T10:59:12;26.80;;;11.68;;
52456;SDS011;38369;52.840;7.082;2023-10-09T11:01:39;22.70;;;12.20;;
52456;SDS011;38369;52.840;7.082;2023-10-09T11:04:28;24.53;;;13.57;;
52456;SDS011;38369;52.840;7.082;2023-10-09T11:06:55;25.08;;;12.10;;
52456;SDS011;38369;52.840;7.082;2023-10-09T11:09:44;22.70;;;11.30;;
52456;SDS011;38369;52.840;7.082;2023-10-09T11:12:29;22.58;;;12.02;;
52456;SDS011;38369;52.840;7.082;2023-10-09T11:15:11;21.27;;;12.45;;
52456;SDS011;38369;52.840;7.082;2023-10-09T11:18:03;22.33;;;11.93;;
52456;SDS011;38369;52.840;7.082;2023-10-09T11:20:36;24.25;;;10.73;;
52456;SDS011;38369;52.840;7.082;2023-10-09T11:23:19;22.45;;;10.77;;
52456;SDS011;38369;52.840;7.082;2023-10-09T11:25:54;22.58;;;11.55;;
52456;SDS011;38369;52.840;7.082;2023-10-09T11:28:40;25.98;;;11.80;;
52456;SDS011;38369;52.840;7.082;2023-10-09T11:31:24;26.65;;;11.73;;
52456;SDS011;38369;52.840;7.082;2023-10-09T11:33:51;26.73;;;13.18;;
52456;SDS011;38369;52.840;7.082;2023-10-09T11:36:18;20.55;;;11.82;;
52456;SDS011;38369;52.840;7.082;2023-10-09T11:38:58;25.73;;;10.65;;
52456;SDS011;38369;52.840;7.082;2023-10-09T11:41:43;23.25;;;12.23;;
52456;SDS011;38369;52.840;7.082;2023-10-09T11:44:09;25.33;;;13.07;;
52456;SDS011;38369;52.840;7.082;2023-10-09T11:46:59;27.55;;;13.10;;
52456;SDS011;38369;52.840;7.082;2023-10-09T11:49:51;22.87;;;13.33;;
52456;SDS011;38369;52.840;7.082;2023-10-09T11:52:30;21.27;;;10.75;;
52456;SDS011;38369;52.840;7.082;2023-10-09T11:54:57;23.90;;;12.55;;
52456;SDS011;38369;52.840;7.082;2023-10-09T11:57:24;20.52;;;11.98;;
52456;SDS011;38369;52.840;7.082;2023-10-09T11:59:59;19.77;;;10.90;;
52456;SDS011;38369;52.840;7.082;2023-10-09T12:02:25;21.50;;;12.18;;
52456;SDS011;38369;52.840;7.082;2023-10-09T12:04:52;21.85;;;13.00;;
52456;SDS011;38369;52.840;7.082;2023-10-09T12:07:21;26.65;;;12.80;;
52456;SDS011;38369;52.840;7.082;2023-10-09T12:09:47;27.13;;;12.68;;
52456;SDS011;38369;52.840;7.082;2023-10-09T12:12:21;23.17;;;13.20;;
52456;SDS011;38369;52.840;7.082;2023-10-09T12:14:52;25.48;;;11.93;;
52456;SDS011;38369;52.840;7.082;2023-10-09T12:17:18;19.48;;;11.65;;
52456;SDS011;38369;52.840;7.082;2023-10-09T12:19:44;22.83;;;12.82;;
52456;SDS011;38369;52.840;7.082;2023-10-09T12:22:10;19.45;;;12.07;;
52456;SDS011;38369;52.840;7.082;2023-10-09T12:24:41;24.95;;;12.15;;
52456;SDS011;38369;52.840;7.082;2023-10-09T12:27:08;26.77;;;13.85;;
52456;SDS011;38369;52.840;7.082;2023-10-09T12:29:37;28.50;;;13.13;;
52456;SDS011;38369;52.840;7.082;2023-10-09T12:32:09;26.77;;;12.73;;
52456;SDS011;38369;52.840;7.082;2023-10-09T12:34:36;27.73;;;13.07;;
52456;SDS011;38369;52.840;7.082;2023-10-09T12:37:03;18.80;;;10.82;;
52456;SDS011;38369;52.840;7.082;2023-10-09T12:39:29;26.58;;;11.73;;
52456;SDS011;38369;52.840;7.082;2023-10-09T12:41:58;20.05;;;10.88;;
52456;SDS011;38369;52.840;7.082;2023-10-09T12:44:34;20.23;;;11.05;;
52456;SDS011;38369;52.840;7.082;2023-10-09T12:47:08;19.67;;;9.35;;
52456;SDS011;38369;52.840;7.082;2023-10-09T12:49:37;22.23;;;9.70;;
52456;SDS011;38369;52.840;7.082;2023-10-09T12:52:09;22.02;;;9.30;;
52456;SDS011;38369;52.840;7.082;2023-10-09T12:54:44;22.92;;;9.60;;
52456;SDS011;38369;52.840;7.082;2023-10-09T12:57:11;19.38;;;8.18;;
52456;SDS011;38369;52.840;7.082;2023-10-09T12:59:41;25.67;;;8.85;;
52456;SDS011;38369;52.840;7.082;2023-10-09T13:02:16;23.88;;;9.05;;
52456;SDS011;38369;52.840;7.082;2023-10-09T13:04:55;17.42;;;8.55;;
52456;SDS011;38369;52.840;7.082;2023-10-09T13:07:21;16.77;;;7.88;;
52456;SDS011;38369;52.840;7.082;2023-10-09T13:09:47;18.65;;;8.63;;
52456;SDS011;38369;52.840;7.082;2023-10-09T13:12:32;19.83;;;8.80;;
52456;SDS011;38369;52.840;7.082;2023-10-09T13:14:58;19.38;;;8.82;;
52456;SDS011;38369;52.840;7.082;2023-10-09T13:17:24;23.67;;;10.20;;
52456;SDS011;38369;52.840;7.082;2023-10-09T13:19:52;18.00;;;7.82;;
52456;SDS011;38369;52.840;7.082;2023-10-09T13:22:19;17.13;;;6.75;;
52456;SDS011;38369;52.840;7.082;2023-10-09T13:24:48;16.58;;;7.50;;
52456;SDS011;38369;52.840;7.082;2023-10-09T13:27:15;10.45;;;5.30;;
52456;SDS011;38369;52.840;7.082;2023-10-09T13:29:46;16.63;;;5.53;;
52456;SDS011;38369;52.840;7.082;2023-10-09T13:32:13;13.30;;;5.20;;
52456;SDS011;38369;52.840;7.082;2023-10-09T13:34:43;11.70;;;5.07;;
52456;SDS011;38369;52.840;7.082;2023-10-09T13:37:13;8.75;;;4.53;;
52456;SDS011;38369;52.840;7.082;2023-10-09T13:39:46;12.30;;;5.05;;
52456;SDS011;38369;52.840;7.082;2023-10-09T13:42:18;12.48;;;4.72;;
52456;SDS011;38369;52.840;7.082;2023-10-09T13:44:49;11.38;;;4.18;;
52456;SDS011;38369;52.840;7.082;2023-10-09T13:47:18;13.50;;;5.28;;
52456;SDS011;38369;52.840;7.082;2023-10-09T13:49:46;11.13;;;4.15;;
52456;SDS011;38369;52.840;7.082;2023-10-09T13:52:16;9.82;;;4.03;;
52456;SDS011;38369;52.840;7.082;2023-10-09T13:54:47;11.82;;;4.75;;
52456;SDS011;38369;52.840;7.082;2023-10-09T13:57:14;10.98;;;4.32;;
52456;SDS011;38369;52.840;7.082;2023-10-09T13:59:40;12.50;;;4.20;;
52456;SDS011;38369;52.840;7.082;2023-10-09T14:02:16;8.88;;;3.42;;
52456;SDS011;38369;52.840;7.082;2023-10-09T14:04:43;9.15;;;3.63;;
52456;SDS011;38369;52.840;7.082;2023-10-09T14:07:09;10.23;;;3.63;;
52456;SDS011;38369;52.840;7.082;2023-10-09T14:09:35;11.23;;;3.80;;
52456;SDS011;38369;52.840;7.082;2023-10-09T14:12:10;12.43;;;4.15;;
52456;SDS011;38369;52.840;7.082;2023-10-09T14:14:40;7.32;;;3.70;;
52456;SDS011;38369;52.840;7.082;2023-10-09T14:17:12;8.18;;;3.20;;
52456;SDS011;38369;52.840;7.082;2023-10-09T14:19:47;8.05;;;4.30;;
52456;SDS011;38369;52.840;7.082;2023-10-09T14:22:13;6.85;;;3.40;;
52456;SDS011;38369;52.840;7.082;2023-10-09T14:24:45;12.10;;;3.28;;
52456;SDS011;38369;52.840;7.082;2023-10-09T14:27:12;11.05;;;4.20;;
52456;SDS011;38369;52.840;7.082;2023-10-09T14:29:48;13.63;;;3.63;;
52456;SDS011;38369;52.840;7.082;2023-10-09T14:34:40;7.97;;;3.38;;
52456;SDS011;38369;52.840;7.082;2023-10-09T14:37:16;10.15;;;4.15;;
52456;SDS011;38369;52.840;7.082;2023-10-09T14:39:44;12.77;;;3.80;;
52456;SDS011;38369;52.840;7.082;2023-10-09T14:42:16;7.35;;;3.22;;
52456;SDS011;38369;52.840;7.082;2023-10-09T14:44:42;8.93;;;3.03;;
52456;SDS011;38369;52.840;7.082;2023-10-09T14:47:10;10.85;;;3.60;;
52456;SDS011;38369;52.840;7.082;2023-10-09T14:49:39;7.50;;;3.70;;
52456;SDS011;38369;52.840;7.082;2023-10-09T14:52:11;13.65;;;3.92;;
52456;SDS011;38369;52.840;7.082;2023-10-09T14:57:07;8.07;;;2.97;;
52456;SDS011;38369;52.840;7.082;2023-10-09T14:59:36;8.40;;;3.28;;
52456;SDS011;38369;52.840;7.082;2023-10-09T15:02:02;10.02;;;3.20;;
52456;SDS011;38369;52.840;7.082;2023-10-09T15:04:30;9.35;;;3.05;;
52456;SDS011;38369;52.840;7.082;2023-10-09T15:06:56;8.45;;;2.95;;
52456;SDS011;38369;52.840;7.082;2023-10-09T15:09:23;10.40;;;3.38;;
52456;SDS011;38369;52.840;7.082;2023-10-09T15:11:53;7.13;;;2.78;;
52456;SDS011;38369;52.840;7.082;2023-10-09T15:14:19;8.18;;;3.15;;
52456;SDS011;38369;52.840;7.082;2023-10-09T15:16:46;9.60;;;3.45;;
52456;SDS011;38369;52.840;7.082;2023-10-09T15:19:12;8.10;;;3.40;;
52456;SDS011;38369;52.840;7.082;2023-10-09T15:21:39;12.45;;;3.28;;
52456;SDS011;38369;52.840;7.082;2023-10-09T15:24:16;8.43;;;3.60;;
52456;SDS011;38369;52.840;7.082;2023-10-09T15:26:47;9.13;;;2.75;;
52456;SDS011;38369;52.840;7.082;2023-10-09T15:29:23;11.15;;;4.15;;
52456;SDS011;38369;52.840;7.082;2023-10-09T15:31:56;8.32;;;3.15;;
52456;SDS011;38369;52.840;7.082;2023-10-09T15:34:25;6.85;;;2.60;;
52456;SDS011;38369;52.840;7.082;2023-10-09T15:36:52;14.05;;;3.47;;
52456;SDS011;38369;52.840;7.082;2023-10-09T15:39:18;9.80;;;3.25;;
52456;SDS011;38369;52.840;7.082;2023-10-09T15:41:45;10.18;;;3.60;;
52456;SDS011;38369;52.840;7.082;2023-10-09T15:44:11;11.55;;;3.40;;
52456;SDS011;38369;52.840;7.082;2023-10-09T15:46:41;12.43;;;3.60;;